Time;durP1;ratioP1;P1;durP2;ratioP2;P2;SDS_P1;SDS_P2;PMS_P1;PMS_P2;Temp;Humidity;BMP_temperature;BMP_pressure;BME280_temperature;BME280_humidity;BME280_pressure;Samples;Min_cycle;Max_cycle;Signal;HPM_P1;HPM_P2
2021/06/13 00:01:04;;;;;;;1.13;1.03;;;;;;;11.65;82.78;101273.94;5050550;28;20187;-72
2021/06/13 00:03:29;;;;;;;0.93;0.87;;;;;;;11.56;83.35;101274.59;5050518;28;20194;-72
2021/06/13 00:05:54;;;;;;;1.57;1.23;;;;;;;11.49;83.37;101267.88;5049871;28;20190;-71
2021/06/13 00:08:20;;;;;;;1.47;0.90;;;;;;;11.47;83.37;101272.84;5050225;28;20635;-72
2021/06/13 00:10:45;;;;;;;2.00;1.73;;;;;;;11.47;82.95;101278.31;5050644;28;20195;-72
2021/06/13 00:13:12;;;;;;;2.20;1.30;;;;;;;11.44;82.72;101284.41;5050363;28;20583;-72
2021/06/13 00:15:37;;;;;;;6.33;1.10;;;;;;;11.36;83.09;101288.59;5050392;28;20516;-72
2021/06/13 00:18:03;;;;;;;1.60;1.20;;;;;;;11.37;82.43;101292.97;5049213;28;20700;-72
2021/06/13 00:20:29;;;;;;;2.50;1.57;;;;;;;11.37;82.02;101289.41;5050428;28;20262;-72
2021/06/13 00:22:55;;;;;;;1.57;1.43;;;;;;;11.35;82.66;101280.69;5063755;28;20622;-72
2021/06/13 00:25:20;;;;;;;2.60;1.40;;;;;;;11.30;82.18;101279.66;5062876;28;20241;-72
2021/06/13 00:27:46;;;;;;;1.20;1.10;;;;;;;11.29;81.81;101277.22;5050570;28;20179;-72
2021/06/13 00:30:12;;;;;;;1.60;1.30;;;;;;;11.26;82.35;101288.72;5050775;28;20175;-72
2021/06/13 00:32:37;;;;;;;5.77;1.80;;;;;;;11.21;82.70;101294.28;5066308;28;20531;-72
2021/06/13 00:35:04;;;;;;;1.57;1.17;;;;;;;11.15;83.32;101292.75;5050596;28;20183;-72
2021/06/13 00:37:30;;;;;;;4.50;1.50;;;;;;;11.06;83.25;101287.09;5050464;28;20804;-72
2021/06/13 00:39:55;;;;;;;1.80;1.23;;;;;;;11.01;84.12;101289.91;5050646;28;20167;-72
2021/06/13 00:42:21;;;;;;;1.53;0.87;;;;;;;10.96;84.31;101292.69;5050661;28;20634;-72
2021/06/13 00:44:47;;;;;;;1.30;1.10;;;;;;;10.87;84.93;101292.56;5050422;28;20549;-72
2021/06/13 00:47:12;;;;;;;2.50;1.83;;;;;;;10.81;84.98;101293.69;5050446;28;20171;-72
2021/06/13 00:49:38;;;;;;;1.43;1.27;;;;;;;10.85;85.19;101302.13;5050812;28;20623;-72
2021/06/13 00:52:03;;;;;;;1.43;1.23;;;;;;;10.83;85.64;101296.13;5032741;28;20218;-72
2021/06/13 00:54:29;;;;;;;1.20;1.10;;;;;;;10.80;86.17;101288.53;5050588;28;20573;-72
2021/06/13 00:56:55;;;;;;;1.20;1.10;;;;;;;10.75;86.50;101294.06;5050351;28;20175;-72
2021/06/13 00:59:21;;;;;;;1.17;1.07;;;;;;;10.78;87.22;101298.94;5050520;28;20174;-72
2021/06/13 01:01:46;;;;;;;2.03;1.93;;;;;;;10.80;87.13;101300.28;5050409;28;20547;-72
2021/06/13 01:04:11;;;;;;;4.23;1.13;;;;;;;10.80;87.56;101299.47;5050236;28;20190;-72
2021/06/13 01:07:03;;;;;;;1.33;0.87;;;;;;;10.82;87.83;101302.72;5049801;28;20182;-72
2021/06/13 01:09:34;;;;;;;1.30;1.20;;;;;;;10.79;87.98;101300.56;5050177;28;20180;-72
2021/06/13 01:12:08;;;;;;;1.37;1.27;;;;;;;10.75;88.39;101305.00;5050214;28;20174;-72
2021/06/13 01:14:46;;;;;;;2.30;1.07;;;;;;;10.72;88.57;101301.75;5065768;28;20244;-72
2021/06/13 01:17:23;;;;;;;1.57;1.47;;;;;;;10.71;88.70;101313.78;5050230;28;20250;-72
2021/06/13 01:19:59;;;;;;;3.40;1.67;;;;;;;10.68;88.95;101314.34;5050389;28;20666;-72
2021/06/13 01:22:46;;;;;;;0.60;0.60;;;;;;;10.64;89.03;101318.78;5050302;28;20216;-72
2021/06/13 01:25:35;;;;;;;3.27;2.37;;;;;;;10.60;89.12;101309.53;5050253;28;20191;-72
2021/06/13 01:28:15;;;;;;;1.10;1.10;;;;;;;10.55;89.03;101308.75;5050029;28;20175;-72
2021/06/13 01:30:41;;;;;;;1.10;1.10;;;;;;;10.53;89.16;101303.59;5054224;28;20160;-72
2021/06/13 01:33:14;;;;;;;3.23;1.57;;;;;;;10.53;89.39;101306.31;5053896;28;20179;-72
2021/06/13 01:35:40;;;;;;;0.90;0.90;;;;;;;10.56;89.27;101311.22;5053920;28;20175;-72
2021/06/13 01:38:12;;;;;;;1.90;1.47;;;;;;;10.58;89.32;101305.47;5053739;28;20210;-72
2021/06/13 01:40:39;;;;;;;10.50;1.83;;;;;;;10.63;89.40;101308.94;5035973;28;20534;-71
2021/06/13 01:43:07;;;;;;;2.33;2.07;;;;;;;10.71;89.15;101311.06;5053730;28;20210;-72
2021/06/13 01:45:36;;;;;;;1.57;1.33;;;;;;;10.75;88.63;101310.47;5053758;28;20167;-72
2021/06/13 01:48:03;;;;;;;4.53;1.43;;;;;;;10.76;88.14;101321.09;5053546;28;20631;-72
2021/06/13 01:50:30;;;;;;;1.90;1.60;;;;;;;10.81;88.59;101317.50;5053572;28;20229;-72
2021/06/13 01:52:58;;;;;;;1.63;1.37;;;;;;;10.80;87.95;101318.59;5053522;28;20167;-72
2021/06/13 01:55:25;;;;;;;2.10;1.77;;;;;;;10.79;87.99;101320.50;5035707;28;20183;-72
2021/06/13 01:57:51;;;;;;;0.70;0.70;;;;;;;10.80;87.91;101324.06;5053306;28;20701;-72
2021/06/13 02:00:17;;;;;;;2.23;1.70;;;;;;;10.78;87.99;101326.28;5053311;28;20190;-72
2021/06/13 02:02:47;;;;;;;0.97;0.90;;;;;;;10.78;88.31;101321.63;5053392;28;20182;-72
2021/06/13 02:05:13;;;;;;;2.10;1.40;;;;;;;10.80;88.48;101324.88;5053563;28;20662;-72
2021/06/13 02:07:40;;;;;;;2.40;2.23;;;;;;;10.83;88.32;101329.75;5052962;28;20533;-72
2021/06/13 02:10:09;;;;;;;1.30;1.07;;;;;;;10.80;88.35;101330.34;5068661;28;20175;-72
2021/06/13 02:12:44;;;;;;;2.07;1.07;;;;;;;10.79;88.68;101325.97;5035407;28;20571;-72
2021/06/13 02:15:11;;;;;;;1.57;1.43;;;;;;;10.81;88.65;101331.97;5053291;28;20653;-72
2021/06/13 02:17:42;;;;;;;3.80;1.50;;;;;;;10.80;87.92;101327.59;5052936;28;20538;-72
2021/06/13 02:20:11;;;;;;;1.90;1.80;;;;;;;10.77;88.67;101330.13;5053183;28;20160;-72
2021/06/13 02:22:37;;;;;;;4.90;2.43;;;;;;;10.76;88.33;101331.22;5052942;28;20194;-72
2021/06/13 02:25:04;;;;;;;1.40;1.30;;;;;;;10.73;88.52;101329.91;5052954;28;20191;-72
2021/06/13 02:27:30;;;;;;;1.60;1.50;;;;;;;10.69;88.65;101332.38;5053039;28;20185;-72
2021/06/13 02:29:59;;;;;;;2.30;1.30;;;;;;;10.62;88.54;101329.19;5053155;28;20182;-72
2021/06/13 02:32:24;;;;;;;1.33;1.23;;;;;;;10.60;88.61;101338.78;5052894;28;20175;-72
2021/06/13 02:34:50;;;;;;;1.47;1.30;;;;;;;10.54;88.72;101340.72;5052846;28;20502;-72
2021/06/13 02:37:17;;;;;;;1.40;1.30;;;;;;;10.48;89.38;101341.09;5052794;28;20171;-72
2021/06/13 02:39:43;;;;;;;1.03;1.03;;;;;;;10.39;89.58;101338.97;5052559;28;20194;-72
2021/06/13 02:42:09;;;;;;;5.53;2.73;;;;;;;10.34;89.71;101333.56;5051984;28;20626;-72
2021/06/13 02:44:35;;;;;;;1.10;1.00;;;;;;;10.29;90.13;101341.81;5052473;28;20210;-72
2021/06/13 02:47:00;;;;;;;1.57;1.37;;;;;;;10.26;90.06;101353.28;5052410;28;20217;-72
2021/06/13 02:49:25;;;;;;;3.13;1.43;;;;;;;10.25;90.49;101345.38;5052573;28;20183;-72
2021/06/13 02:52:15;;;;;;;4.60;1.20;;;;;;;10.21;90.49;101349.78;5052518;28;20163;-72
2021/06/13 02:54:44;;;;;;;2.17;1.97;;;;;;;10.21;90.38;101350.63;5052431;28;20266;-72
2021/06/13 02:57:32;;;;;;;2.30;1.67;;;;;;;10.20;90.48;101354.41;5052275;28;20167;-72
2021/06/13 03:00:01;;;;;;;2.60;1.30;;;;;;;10.19;90.73;101362.91;5052236;28;20242;-72
2021/06/13 03:02:29;;;;;;;2.60;1.30;;;;;;;10.17;91.31;101365.91;5052217;28;20183;-72
2021/06/13 03:04:58;;;;;;;3.40;1.57;;;;;;;10.17;91.05;101365.09;5052102;28;20209;-72
2021/06/13 03:07:24;;;;;;;2.13;1.43;;;;;;;10.13;90.98;101357.50;5051955;28;20210;-72
2021/06/13 03:09:51;;;;;;;5.03;1.20;;;;;;;10.12;91.06;101364.03;5052081;28;20194;-72
2021/06/13 03:12:19;;;;;;;2.07;1.77;;;;;;;10.11;91.09;101361.59;5052101;28;20177;-72
2021/06/13 03:14:49;;;;;;;3.53;1.20;;;;;;;10.09;90.92;101359.13;5052006;28;20178;-72
2021/06/13 03:17:17;;;;;;;1.57;1.00;;;;;;;10.07;90.94;101369.53;5051964;28;20608;-72
2021/06/13 03:19:44;;;;;;;2.83;1.40;;;;;;;10.06;91.42;101367.91;5051955;28;20190;-73
2021/06/13 03:22:10;;;;;;;2.73;2.50;;;;;;;10.07;90.98;101376.91;5067263;28;20171;-72
2021/06/13 03:24:39;;;;;;;2.57;1.37;;;;;;;10.07;90.88;101377.72;5051719;28;20238;-72
2021/06/13 03:27:08;;;;;;;3.47;1.47;;;;;;;10.04;91.09;101372.84;5051613;28;20171;-72
2021/06/13 03:29:36;;;;;;;1.67;1.20;;;;;;;10.06;90.74;101372.56;5051668;28;20186;-72
2021/06/13 03:32:03;;;;;;;2.00;1.80;;;;;;;10.07;90.73;101382.38;5051704;28;20713;-72
2021/06/13 03:34:29;;;;;;;1.30;1.13;;;;;;;10.06;90.60;101378.00;5051943;28;20518;-72
2021/06/13 03:36:55;;;;;;;1.10;0.80;;;;;;;10.04;90.81;101378.31;5051619;28;20183;-72
2021/06/13 03:39:22;;;;;;;2.77;1.77;;;;;;;10.03;90.48;101389.50;5051579;28;20214;-72
2021/06/13 03:41:48;;;;;;;3.43;1.10;;;;;;;10.02;90.71;101388.69;5051542;28;20175;-72
2021/06/13 03:44:14;;;;;;;2.00;1.17;;;;;;;10.04;90.60;101391.13;5051365;28;20199;-72
2021/06/13 03:46:41;;;;;;;4.17;1.13;;;;;;;10.06;89.94;101389.75;5051237;28;20175;-72
2021/06/13 03:49:08;;;;;;;1.07;0.93;;;;;;;10.07;90.29;101391.38;5051449;28;20184;-72
2021/06/13 03:51:33;;;;;;;1.90;1.80;;;;;;;10.05;89.92;101390.84;5051217;28;20175;-72
2021/06/13 03:53:59;;;;;;;0.70;0.70;;;;;;;10.08;90.56;101397.66;5051349;28;20186;-72
2021/06/13 03:56:34;;;;;;;3.47;1.93;;;;;;;10.09;89.88;101397.38;5051153;28;20229;-72
2021/06/13 03:59:01;;;;;;;2.43;1.60;;;;;;;10.10;90.33;101396.25;5051284;28;20167;-72
2021/06/13 04:01:27;;;;;;;2.63;1.07;;;;;;;10.14;90.10;101397.34;5051065;28;20202;-72
2021/06/13 04:03:54;;;;;;;1.20;0.83;;;;;;;10.14;89.85;101404.72;5051227;28;20535;-72
2021/06/13 04:06:24;;;;;;;3.10;1.50;;;;;;;10.17;90.04;101414.25;5050742;28;20194;-72
2021/06/13 04:08:51;;;;;;;1.17;1.07;;;;;;;10.19;89.98;101412.88;5051372;28;20186;-72
2021/06/13 04:11:18;;;;;;;1.13;1.03;;;;;;;10.20;89.92;101414.50;5051052;28;20179;-72
2021/06/13 04:13:45;;;;;;;2.53;1.47;;;;;;;10.24;89.63;101412.03;5051059;28;20836;-72
2021/06/13 04:16:11;;;;;;;2.63;2.13;;;;;;;10.29;90.01;101417.47;5051179;28;20567;-71
2021/06/13 04:18:37;;;;;;;1.73;1.40;;;;;;;10.31;89.42;101415.28;5033084;28;20648;-72
2021/06/13 04:21:08;;;;;;;1.83;1.23;;;;;;;10.37;89.39;101414.13;5050972;28;20176;-72
2021/06/13 04:23:34;;;;;;;1.40;1.30;;;;;;;10.40;89.39;101419.00;5066259;28;20198;-72
2021/06/13 04:26:00;;;;;;;5.90;1.20;;;;;;;10.46;89.29;101423.34;5051198;28;20394;-72
2021/06/13 04:28:26;;;;;;;1.70;1.60;;;;;;;10.51;89.00;101420.56;5050709;28;20565;-72
2021/06/13 04:31:03;;;;;;;2.67;2.07;;;;;;;10.54;88.80;101419.97;5050835;28;20175;-72
2021/06/13 04:33:34;;;;;;;1.47;1.03;;;;;;;10.59;88.70;101428.13;5050703;28;20175;-72
2021/06/13 04:36:01;;;;;;;1.47;1.37;;;;;;;10.62;88.24;101421.28;5051005;28;20270;-72
2021/06/13 04:38:27;;;;;;;1.60;1.47;;;;;;;10.65;88.70;101428.91;5050631;28;20525;-72
2021/06/13 04:40:52;;;;;;;2.87;1.20;;;;;;;10.70;88.76;101426.09;5066344;28;20529;-72
2021/06/13 04:43:18;;;;;;;3.13;1.53;;;;;;;10.76;89.31;101427.72;5050995;28;20382;-72
2021/06/13 04:45:44;;;;;;;1.67;1.40;;;;;;;10.77;88.88;101425.78;5050590;28;20552;-72
2021/06/13 04:48:09;;;;;;;4.13;1.30;;;;;;;10.75;88.86;101426.06;5050450;28;20179;-72
2021/06/13 04:50:37;;;;;;;1.67;1.50;;;;;;;10.76;89.17;101430.44;5050620;28;20230;-72
2021/06/13 04:53:28;;;;;;;1.60;1.30;;;;;;;10.73;89.19;101433.75;5050365;28;20175;-72
2021/06/13 04:55:58;;;;;;;1.07;0.90;;;;;;;10.75;88.77;101436.19;5031955;28;20677;-72
2021/06/13 04:58:25;;;;;;;1.50;1.40;;;;;;;10.79;88.32;101446.25;5032329;28;20171;-73
2021/06/13 05:00:51;;;;;;;2.20;1.67;;;;;;;10.85;88.82;101442.38;5049942;28;20187;-72
2021/06/13 05:03:17;;;;;;;4.63;1.40;;;;;;;10.92;89.04;101442.03;5050045;28;20187;-72
2021/06/13 05:05:43;;;;;;;2.37;2.17;;;;;;;11.01;88.28;101435.66;5053658;28;20254;-73
2021/06/13 05:08:08;;;;;;;3.57;1.70;;;;;;;11.12;87.32;101447.28;5053772;28;20275;-73
2021/06/13 05:10:34;;;;;;;3.13;2.70;;;;;;;11.18;87.37;101446.13;5054334;28;20175;-72
2021/06/13 05:12:59;;;;;;;1.53;1.40;;;;;;;11.28;87.14;101445.19;5054059;28;20496;-72
2021/06/13 05:15:25;;;;;;;1.60;1.50;;;;;;;11.32;86.96;101449.00;5054343;28;20186;-72
2021/06/13 05:17:50;;;;;;;2.53;1.93;;;;;;;11.39;87.21;101456.81;5053634;28;20199;-72
2021/06/13 05:20:17;;;;;;;1.50;1.40;;;;;;;11.50;87.03;101455.59;5053683;28;20701;-72
2021/06/13 05:22:54;;;;;;;2.53;1.17;;;;;;;11.54;85.57;101453.91;5053967;28;20649;-72
2021/06/13 05:25:20;;;;;;;7.47;2.03;;;;;;;11.57;85.05;101456.03;5053581;28;20207;-72
2021/06/13 05:27:46;;;;;;;6.47;1.43;;;;;;;11.62;85.07;101456.00;5053270;28;20588;-72
2021/06/13 05:30:12;;;;;;;1.80;1.00;;;;;;;11.68;84.47;101467.69;5069404;28;20213;-72
2021/06/13 05:32:37;;;;;;;1.57;1.40;;;;;;;11.69;83.33;101472.06;5053453;28;20615;-72
2021/06/13 05:35:03;;;;;;;5.93;1.60;;;;;;;11.74;83.63;101474.75;5053824;28;20233;-72
2021/06/13 05:37:29;;;;;;;2.93;1.20;;;;;;;11.83;84.10;101471.06;5053199;28;20175;-72
2021/06/13 05:39:54;;;;;;;9.27;1.43;;;;;;;11.89;83.56;101478.13;5053361;28;20623;-72
2021/06/13 05:42:19;;;;;;;1.70;1.60;;;;;;;11.90;83.93;101482.50;5052788;28;20179;-72
2021/06/13 05:44:45;;;;;;;2.20;1.40;;;;;;;11.95;83.14;101475.31;5066678;28;20213;-72
2021/06/13 05:47:10;;;;;;;2.00;1.50;;;;;;;12.12;84.25;101478.34;5062897;28;20206;-72
2021/06/13 05:49:35;;;;;;;2.10;1.27;;;;;;;12.24;81.99;101483.38;5053640;28;20270;-72
2021/06/13 05:52:01;;;;;;;0.90;0.77;;;;;;;12.28;80.85;101482.47;5053606;28;20258;-74
2021/06/13 05:54:26;;;;;;;3.50;1.13;;;;;;;12.25;80.72;101485.00;5053525;28;20191;-74
2021/06/13 05:56:51;;;;;;;1.67;1.53;;;;;;;12.37;79.89;101488.94;5053368;28;20177;-73
2021/06/13 05:59:16;;;;;;;5.60;1.70;;;;;;;12.50;78.67;101501.06;5053448;28;20206;-74
2021/06/13 06:01:43;;;;;;;2.10;1.80;;;;;;;12.50;78.55;101493.66;5053327;28;20218;-73
2021/06/13 06:04:08;;;;;;;3.43;1.60;;;;;;;12.52;78.60;101505.13;5053083;28;20198;-74
2021/06/13 06:06:33;;;;;;;1.70;1.40;;;;;;;12.58;78.63;101507.78;5035126;28;20175;-73
2021/06/13 06:09:05;;;;;;;1.43;1.33;;;;;;;12.56;78.12;101505.34;5068624;28;20198;-73
2021/06/13 06:11:30;;;;;;;1.50;1.20;;;;;;;12.56;78.73;101505.34;5053184;28;20179;-74
2021/06/13 06:13:55;;;;;;;1.17;1.07;;;;;;;12.68;78.72;101516.66;5058082;28;20273;-73
2021/06/13 06:16:23;;;;;;;7.80;1.50;;;;;;;12.70;77.75;101516.38;5054323;28;20203;-74
2021/06/13 06:18:48;;;;;;;3.30;1.40;;;;;;;12.78;78.68;101508.28;5072195;28;20645;-73
2021/06/13 06:21:14;;;;;;;1.03;1.00;;;;;;;12.80;76.26;101507.97;5053587;28;20261;-73
2021/06/13 06:23:39;;;;;;;2.20;1.33;;;;;;;12.85;76.72;101505.13;5053172;28;20199;-73
2021/06/13 06:26:04;;;;;;;1.60;1.10;;;;;;;12.96;75.77;101509.34;5052959;28;20541;-73
2021/06/13 06:28:30;;;;;;;3.10;1.50;;;;;;;13.09;76.30;101507.75;5034845;28;20167;-73
2021/06/13 06:30:55;;;;;;;1.63;1.00;;;;;;;13.26;75.93;101509.94;5052628;28;20639;-74
2021/06/13 06:33:20;;;;;;;1.13;1.03;;;;;;;13.21;75.19;101513.59;5062000;28;20205;-74
2021/06/13 06:35:46;;;;;;;4.60;0.90;;;;;;;13.16;75.53;101510.09;5071771;28;20186;-74
2021/06/13 06:38:11;;;;;;;2.67;1.57;;;;;;;13.18;76.12;101510.63;5072721;28;20724;-74
2021/06/13 06:40:37;;;;;;;1.63;1.53;;;;;;;13.32;75.42;101508.75;5061339;28;20484;-74
2021/06/13 06:43:02;;;;;;;2.50;1.73;;;;;;;13.40;74.81;101505.28;5052621;28;20214;-73
2021/06/13 06:45:27;;;;;;;3.03;1.73;;;;;;;13.43;72.50;101509.34;5052383;28;20213;-73
2021/06/13 06:47:53;;;;;;;1.73;1.63;;;;;;;13.42;73.00;101516.75;5052443;28;20206;-73
2021/06/13 06:50:18;;;;;;;3.03;1.37;;;;;;;13.56;73.19;101503.03;5052583;28;20245;-74
2021/06/13 06:52:44;;;;;;;1.20;1.20;;;;;;;13.55;73.21;101510.47;5054538;28;20181;-73
2021/06/13 06:55:10;;;;;;;2.13;1.40;;;;;;;13.55;72.77;101513.22;5065245;28;20182;-74
2021/06/13 06:57:38;;;;;;;4.90;1.37;;;;;;;13.55;71.98;101526.13;5072275;28;20626;-74
2021/06/13 07:00:06;;;;;;;1.90;1.40;;;;;;;13.53;72.77;101526.44;5058845;28;20674;-73
2021/06/13 07:02:31;;;;;;;1.30;0.97;;;;;;;13.50;72.38;101528.97;5052334;28;20186;-73
2021/06/13 07:04:57;;;;;;;1.17;0.93;;;;;;;13.55;72.37;101543.41;5052189;28;20845;-74
2021/06/13 07:07:22;;;;;;;2.77;0.80;;;;;;;13.69;71.74;101544.22;5052007;28;20278;-74
2021/06/13 07:09:48;;;;;;;2.57;1.07;;;;;;;13.81;72.72;101543.72;5052081;28;20683;-73
2021/06/13 07:12:13;;;;;;;1.57;1.47;;;;;;;14.03;72.63;101545.72;5052102;28;20533;-73
2021/06/13 07:14:38;;;;;;;1.07;0.90;;;;;;;14.10;70.36;101550.81;5051959;28;20187;-74
2021/06/13 07:17:04;;;;;;;1.63;1.53;;;;;;;14.02;70.07;101557.03;5067199;28;20224;-75
2021/06/13 07:19:29;;;;;;;1.47;1.20;;;;;;;13.99;70.42;101551.03;5051941;28;20536;-74
2021/06/13 07:21:54;;;;;;;2.90;1.13;;;;;;;13.89;70.54;101551.25;5051661;28;20219;-73
2021/06/13 07:24:20;;;;;;;2.07;1.43;;;;;;;13.82;71.00;101555.53;5051706;28;20202;-73
2021/06/13 07:26:45;;;;;;;9.07;2.00;;;;;;;13.85;71.39;101569.44;5051262;28;20736;-73
2021/06/13 07:29:10;;;;;;;1.40;0.97;;;;;;;13.82;70.79;101563.75;5051789;28;20274;-74
2021/06/13 07:31:36;;;;;;;3.37;1.30;;;;;;;14.00;71.37;101569.13;5051681;28;20259;-73
2021/06/13 07:34:01;;;;;;;1.33;1.33;;;;;;;14.21;71.27;101566.78;5051932;28;20519;-73
2021/06/13 07:36:27;;;;;;;1.60;1.50;;;;;;;14.45;70.50;101568.47;5051558;28;20230;-74
2021/06/13 07:38:52;;;;;;;2.10;1.23;;;;;;;14.62;69.10;101571.41;5051418;28;20172;-74
2021/06/13 07:41:17;;;;;;;3.17;1.57;;;;;;;14.65;68.36;101568.03;5051723;28;20179;-77
2021/06/13 07:43:42;;;;;;;2.63;1.60;;;;;;;14.54;68.60;101561.13;5051396;28;20249;-77
2021/06/13 07:46:08;;;;;;;1.57;1.47;;;;;;;14.61;69.37;101567.03;5051478;28;20211;-75
2021/06/13 07:48:33;;;;;;;3.53;1.20;;;;;;;14.73;68.86;101571.94;5051310;28;20254;-79
2021/06/13 07:50:59;;;;;;;1.40;1.30;;;;;;;14.61;67.88;101569.78;5051368;28;20163;-77
2021/06/13 07:53:24;;;;;;;2.17;1.20;;;;;;;14.57;68.97;101568.75;5051199;28;20530;-77
2021/06/13 07:55:49;;;;;;;3.13;1.40;;;;;;;14.65;67.75;101573.53;5052482;28;20319;-81
2021/06/13 07:58:15;;;;;;;1.10;1.03;;;;;;;14.82;66.39;101583.84;5067264;28;20220;-81
2021/06/13 08:00:41;;;;;;;1.43;1.00;;;;;;;14.82;64.00;101584.66;5053037;28;20183;-74
2021/06/13 08:03:06;;;;;;;4.33;0.90;;;;;;;14.79;64.44;101570.72;5055122;28;20381;-72
2021/06/13 08:05:32;;;;;;;1.00;0.50;;;;;;;14.88;65.70;101566.88;5050956;28;20203;-72
2021/06/13 08:07:59;;;;;;;5.17;1.70;;;;;;;14.85;63.21;101564.78;5050670;28;20191;-72
2021/06/13 08:10:27;;;;;;;7.37;2.17;;;;;;;14.99;63.47;101570.22;5051060;28;20175;-72
2021/06/13 08:12:53;;;;;;;0.90;0.80;;;;;;;15.27;65.06;101559.03;5050923;28;20183;-72
2021/06/13 08:15:19;;;;;;;1.17;1.07;;;;;;;15.24;61.00;101548.66;5050948;28;20175;-72
2021/06/13 08:17:45;;;;;;;1.67;0.70;;;;;;;15.36;62.70;101577.25;5050841;28;20175;-72
2021/06/13 08:20:12;;;;;;;1.63;1.53;;;;;;;15.52;62.41;101571.34;5050893;28;20182;-72
2021/06/13 08:22:38;;;;;;;0.83;0.73;;;;;;;15.48;60.80;101565.66;5050984;28;20180;-72
2021/06/13 08:25:04;;;;;;;1.80;1.10;;;;;;;15.53;60.21;101562.75;5050776;28;20578;-72
2021/06/13 08:27:30;;;;;;;1.17;0.87;;;;;;;15.48;58.38;101560.94;5032807;28;20213;-72
2021/06/13 08:29:57;;;;;;;2.20;1.57;;;;;;;15.27;59.15;101568.13;5050963;28;20214;-72
2021/06/13 08:32:23;;;;;;;2.07;0.93;;;;;;;15.07;60.43;101579.66;5050724;28;20187;-72
2021/06/13 08:34:49;;;;;;;1.50;0.80;;;;;;;15.00;61.35;101568.28;5050563;28;20704;-72
2021/06/13 08:37:14;;;;;;;2.00;1.20;;;;;;;15.26;61.63;101569.25;5050591;28;20175;-72
2021/06/13 08:39:40;;;;;;;1.47;1.20;;;;;;;15.54;59.31;101571.81;5049961;28;20171;-72
2021/06/13 08:42:05;;;;;;;3.53;1.80;;;;;;;15.63;58.76;101570.78;5050719;28;20695;-72
2021/06/13 08:44:31;;;;;;;1.03;0.70;;;;;;;15.40;57.09;101582.94;5050465;28;20670;-72
2021/06/13 08:46:59;;;;;;;0.83;0.80;;;;;;;15.30;57.94;101573.00;5050321;28;20175;-72
2021/06/13 08:49:25;;;;;;;1.57;1.13;;;;;;;15.49;58.31;101572.78;5050567;28;20167;-72
2021/06/13 08:51:52;;;;;;;0.70;0.70;;;;;;;15.50;58.72;101582.66;5050451;28;20656;-72
2021/06/13 08:54:17;;;;;;;0.90;0.70;;;;;;;15.48;58.47;101580.22;5050490;28;20207;-72
2021/06/13 08:56:42;;;;;;;1.47;0.97;;;;;;;15.51;58.34;101583.47;5050694;28;20203;-73
2021/06/13 08:59:09;;;;;;;1.43;0.90;;;;;;;15.71;57.50;101582.94;5050477;28;20176;-72
2021/06/13 09:01:35;;;;;;;0.50;0.50;;;;;;;15.88;57.25;101580.25;5050352;28;20194;-72
2021/06/13 09:04:02;;;;;;;2.80;0.87;;;;;;;15.92;56.78;101578.50;5050183;28;20208;-72
2021/06/13 09:06:28;;;;;;;2.67;1.13;;;;;;;15.89;58.63;101576.34;5049904;28;20206;-72
2021/06/13 09:08:53;;;;;;;1.03;1.00;;;;;;;16.15;59.17;101583.91;5050276;28;20206;-72
2021/06/13 09:11:33;;;;;;;1.00;0.60;;;;;;;16.38;58.24;101582.66;5050282;28;20183;-72
2021/06/13 09:14:13;;;;;;;0.83;0.83;;;;;;;16.17;56.17;101593.47;5048967;28;20241;-72
2021/06/13 09:16:43;;;;;;;0.50;0.50;;;;;;;15.81;55.90;101590.13;5061051;28;20178;-72
2021/06/13 09:19:10;;;;;;;0.40;0.40;;;;;;;15.79;58.78;101582.19;5051436;28;20179;-72
2021/06/13 09:21:38;;;;;;;1.07;0.60;;;;;;;15.81;57.39;101588.19;5050240;28;20195;-72
2021/06/13 09:24:24;;;;;;;1.03;0.80;;;;;;;15.75;56.94;101589.44;5050123;28;20198;-72
2021/06/13 09:26:52;;;;;;;1.30;1.10;;;;;;;15.74;57.54;101582.31;5050122;28;20159;-72
2021/06/13 09:29:17;;;;;;;0.90;0.80;;;;;;;15.71;57.47;101593.97;5050340;28;20550;-72
2021/06/13 09:31:44;;;;;;;0.93;0.80;;;;;;;15.71;57.65;101591.22;5050132;28;20182;-71
2021/06/13 09:34:15;;;;;;;3.00;1.17;;;;;;;15.89;56.89;101589.31;5050099;28;20215;-72
2021/06/13 09:36:40;;;;;;;1.43;1.00;;;;;;;16.27;55.86;101584.09;5049971;28;20183;-72
2021/06/13 09:39:08;;;;;;;1.20;1.10;;;;;;;16.56;53.92;101589.78;5050174;28;20232;-72
2021/06/13 09:41:40;;;;;;;2.23;1.20;;;;;;;16.66;52.16;101583.97;5050130;28;20225;-72
2021/06/13 09:44:12;;;;;;;1.47;1.10;;;;;;;16.60;53.55;101584.44;5049714;28;20203;-72
2021/06/13 09:46:43;;;;;;;1.37;1.27;;;;;;;16.40;54.42;101582.31;5049467;28;20179;-72
2021/06/13 09:49:11;;;;;;;1.80;0.87;;;;;;;16.26;57.43;101593.50;5031795;28;20820;-72
2021/06/13 09:51:41;;;;;;;1.83;1.30;;;;;;;16.21;57.03;101596.41;5052837;28;20702;-72
2021/06/13 09:54:09;;;;;;;1.20;1.10;;;;;;;16.43;57.05;101582.47;5053089;28;20241;-72
2021/06/13 09:56:39;;;;;;;1.13;0.80;;;;;;;16.65;54.08;101593.38;5052808;28;20229;-72
2021/06/13 09:59:09;;;;;;;2.53;1.03;;;;;;;16.76;54.88;101587.56;5053195;28;20176;-72
2021/06/13 10:01:53;;;;;;;1.53;1.07;;;;;;;16.93;55.56;101590.31;5052926;28;20190;-72
2021/06/13 10:04:21;;;;;;;0.83;0.83;;;;;;;16.90;53.18;101586.25;5052817;28;20306;-72
2021/06/13 10:06:55;;;;;;;1.57;1.00;;;;;;;16.77;53.77;101589.16;5052086;28;20183;-72
2021/06/13 10:09:22;;;;;;;1.43;1.13;;;;;;;16.72;53.79;101584.63;5052825;28;20253;-72
2021/06/13 10:11:50;;;;;;;1.57;1.00;;;;;;;16.88;54.71;101588.53;5052855;28;20171;-72
2021/06/13 10:14:17;;;;;;;1.33;0.90;;;;;;;16.91;54.47;101592.56;5052746;28;20258;-72
2021/06/13 10:16:48;;;;;;;1.27;1.20;;;;;;;17.11;53.04;101585.59;5052505;28;20194;-73
2021/06/13 10:19:21;;;;;;;0.93;0.93;;;;;;;17.52;53.40;101596.06;5052699;28;20195;-72
2021/06/13 10:21:55;;;;;;;1.03;0.80;;;;;;;17.46;51.61;101597.34;5052586;28;20673;-72
2021/06/13 10:24:26;;;;;;;1.20;1.10;;;;;;;17.16;53.76;101600.03;5052433;28;20229;-72
2021/06/13 10:26:54;;;;;;;1.37;1.13;;;;;;;17.05;53.60;101601.50;5052257;28;20229;-72
2021/06/13 10:29:21;;;;;;;1.10;1.00;;;;;;;16.76;53.78;101593.88;5052561;28;20644;-72
2021/06/13 10:31:49;;;;;;;1.50;1.03;;;;;;;16.93;55.82;101598.59;5052474;28;20179;-72
2021/06/13 10:34:16;;;;;;;1.73;1.63;;;;;;;17.34;53.60;101597.22;5052428;28;20205;-72
2021/06/13 10:36:42;;;;;;;1.03;0.73;;;;;;;17.38;50.01;101596.25;5052544;28;20229;-72
2021/06/13 10:39:11;;;;;;;1.50;1.13;;;;;;;17.66;51.57;101601.38;5052177;28;20213;-72
2021/06/13 10:41:37;;;;;;;1.30;1.20;;;;;;;17.37;49.65;101589.09;5035252;28;20541;-72
2021/06/13 10:44:10;;;;;;;2.73;1.83;;;;;;;17.23;51.56;101586.53;5064106;28;20202;-72
2021/06/13 10:46:36;;;;;;;0.73;0.70;;;;;;;17.79;51.05;101592.91;5070151;28;20179;-72
2021/06/13 10:49:03;;;;;;;3.07;0.70;;;;;;;17.95;49.30;101586.81;5059759;28;20179;-72
2021/06/13 10:51:34;;;;;;;1.87;1.00;;;;;;;17.87;51.19;101585.69;5052522;28;20176;-72
2021/06/13 10:54:53;;;;;;;1.03;0.90;;;;;;;18.08;49.27;101596.78;5052469;28;20199;-72
2021/06/13 10:57:18;;;;;;;2.07;1.13;;;;;;;17.84;49.47;101589.94;4971091;28;20181;-72
2021/06/13 10:59:56;;;;;;;1.13;1.00;;;;;;;17.98;51.72;101597.19;4971095;28;20653;-72
2021/06/13 11:02:23;;;;;;;1.27;1.17;;;;;;;18.37;50.88;101594.03;5022548;28;20210;-72
2021/06/13 11:04:54;;;;;;;0.60;0.60;;;;;;;18.35;49.84;101589.97;5051527;28;20665;-72
2021/06/13 11:07:29;;;;;;;1.40;1.03;;;;;;;18.52;49.89;101592.63;5058719;28;20179;-72
2021/06/13 11:10:10;;;;;;;1.07;0.87;;;;;;;18.72;49.47;101599.34;5057650;28;20182;-72
2021/06/13 11:12:51;;;;;;;2.50;1.17;;;;;;;18.70;47.19;101594.13;5052240;28;20170;-72
2021/06/13 11:15:25;;;;;;;1.07;0.97;;;;;;;18.67;47.18;101585.69;5057179;28;20201;-72
2021/06/13 11:17:57;;;;;;;1.00;0.90;;;;;;;18.47;49.78;101601.09;5070505;28;20570;-73
2021/06/13 11:21:28;;;;;;;0.70;0.70;;;;;;;18.39;50.59;101608.34;5059762;28;20175;-72
2021/06/13 11:23:23;;;;;;;2.10;1.63;;;;;;;18.66;49.70;101603.44;5046707;28;20274;-72
2021/06/13 11:25:50;;;;;;;0.73;0.70;;;;;;;18.93;49.93;101611.19;5052467;28;20258;-72
2021/06/13 11:28:28;;;;;;;1.97;1.17;;;;;;;19.08;49.85;101604.22;5051672;28;20171;-72